createdAt,value
2022-09-10T00:02:02.429Z,98247.84
2022-09-10T00:04:29.147Z,98232.88
2022-09-10T00:06:56.722Z,98212.50
2022-09-10T00:09:23.503Z,98214.03
2022-09-10T00:11:50.610Z,98215.59
2022-09-10T00:14:21.554Z,98212.00
2022-09-10T00:16:49.685Z,98217.44
2022-09-10T00:19:16.978Z,98205.88
2022-09-10T00:21:45.968Z,98202.16
2022-09-10T00:24:14.163Z,98214.91
2022-09-10T00:26:40.806Z,98214.03
2022-09-10T00:29:12.107Z,98215.91
2022-09-10T00:31:39.969Z,98215.22
2022-09-10T00:34:07.531Z,98213.69
2022-09-10T00:36:37.239Z,98211.97
2022-09-10T00:39:08.493Z,98217.56
2022-09-10T00:41:39.556Z,98224.50
2022-09-10T00:44:37.531Z,98221.25
2022-09-10T00:47:06.305Z,98241.31
2022-09-10T00:49:39.392Z,98242.78
2022-09-10T00:52:07.826Z,98253.13
2022-09-10T00:54:36.210Z,98260.59
2022-09-10T00:57:12.616Z,98260.31
2022-09-10T00:59:44.863Z,98262.53
2022-09-10T01:02:12.299Z,98275.69
2022-09-10T01:04:40.517Z,98271.63
2022-09-10T01:07:09.927Z,98276.03
2022-09-10T01:09:38.532Z,98279.81
2022-09-10T01:12:57.457Z,98276.19
2022-09-10T01:15:46.254Z,98268.38
2022-09-10T01:18:52.279Z,98263.94
2022-09-10T01:21:32.019Z,98263.38
2022-09-10T01:24:04.392Z,98259.13
2022-09-10T01:26:56.588Z,98248.53
2022-09-10T01:29:46.029Z,98248.03
2022-09-10T01:32:17.696Z,98252.78
2022-09-10T01:35:17.125Z,98253.78
2022-09-10T01:37:59.425Z,98248.63
2022-09-10T01:40:30.777Z,98247.94
2022-09-10T01:43:02.620Z,98249.97
2022-09-10T01:45:32.855Z,98238.53
2022-09-10T01:48:16.267Z,98236.16
2022-09-10T01:50:51.679Z,98239.03
2022-09-10T01:53:36.467Z,98234.78
2022-09-10T01:56:35.506Z,98229.47
2022-09-10T01:59:14.236Z,98224.50
2022-09-10T02:01:47.339Z,98235.56
2022-09-10T02:04:15.961Z,98243.72
2022-09-10T02:06:46.810Z,98237.56
2022-09-10T02:09:16.159Z,98227.69
2022-09-10T02:11:54.361Z,98231.09
2022-09-10T02:14:22.274Z,98236.69
2022-09-10T02:17:00.961Z,98233.13
2022-09-10T02:19:28.034Z,98220.16
2022-09-10T02:21:57.005Z,98225.19
2022-09-10T02:24:23.911Z,98215.50
2022-09-10T02:26:51.326Z,98209.53
2022-09-10T02:29:19.409Z,98212.34
2022-09-10T02:31:49.730Z,98208.25
2022-09-10T02:34:16.346Z,98208.53
2022-09-10T02:36:43.543Z,98214.16
2022-09-10T02:39:10.382Z,98219.59
2022-09-10T02:41:38.183Z,98224.69
2022-09-10T02:44:04.827Z,98226.97
2022-09-10T02:46:31.903Z,98214.97
2022-09-10T02:48:59.041Z,98212.94
2022-09-10T02:51:26.306Z,98217.69
2022-09-10T02:53:53.404Z,98214.38
2022-09-10T02:56:20.125Z,98217.41
2022-09-10T02:58:46.888Z,98210.41
2022-09-10T03:01:16.344Z,98213.13
2022-09-10T03:03:43.037Z,98210.56
2022-09-10T03:06:12.569Z,98204.56
2022-09-10T03:08:39.297Z,98206.00
2022-09-10T03:11:07.573Z,98217.41
2022-09-10T03:13:35.463Z,98216.25
2022-09-10T03:16:05.959Z,98213.69
2022-09-10T03:18:32.671Z,98219.41
2022-09-10T03:21:15.957Z,98210.41
2022-09-10T03:23:44.922Z,98212.28
2022-09-10T03:26:12.109Z,98211.75
2022-09-10T03:28:39.004Z,98211.19
2022-09-10T03:31:06.029Z,98213.34
2022-09-10T03:33:33.581Z,98215.53
2022-09-10T03:36:00.884Z,98217.41
2022-09-10T03:38:27.883Z,98215.69
2022-09-10T03:40:55.149Z,98220.97
2022-09-10T03:43:22.531Z,98208.25
2022-09-10T03:45:52.868Z,98202.63
2022-09-10T03:48:20.593Z,98191.75
2022-09-10T03:50:48.166Z,98191.94
2022-09-10T03:53:15.911Z,98191.94
2022-09-10T03:55:47.140Z,98185.81
2022-09-10T03:58:14.939Z,98185.09
2022-09-10T04:00:43.178Z,98193.41
2022-09-10T04:03:11.118Z,98194.25
2022-09-10T04:05:45.118Z,98188.28
2022-09-10T04:08:15.457Z,98193.16
2022-09-10T04:10:44.153Z,98183.31
2022-09-10T04:13:11.250Z,98187.03
2022-09-10T04:15:38.613Z,98190.78
2022-09-10T04:18:06.469Z,98190.06
2022-09-10T04:20:35.105Z,98188.50
2022-09-10T04:23:03.026Z,98190.91
2022-09-10T04:25:30.035Z,98194.88
2022-09-10T04:27:56.632Z,98186.41
2022-09-10T04:30:23.443Z,98185.09
2022-09-10T04:32:50.457Z,98188.97
2022-09-10T04:35:17.190Z,98185.41
2022-09-10T04:37:43.849Z,98185.72
2022-09-10T04:40:13.012Z,98183.88
2022-09-10T04:42:39.742Z,98182.28
2022-09-10T04:45:07.289Z,98176.16
2022-09-10T04:47:34.445Z,98181.03
2022-09-10T04:50:01.693Z,98180.50
2022-09-10T04:52:29.058Z,98175.25
2022-09-10T04:54:56.000Z,98172.19
2022-09-10T04:57:23.678Z,98165.63
2022-09-10T04:59:50.378Z,98167.00
2022-09-10T05:02:17.030Z,98170.44
2022-09-10T05:04:44.248Z,98166.69
2022-09-10T05:07:10.881Z,98171.13
2022-09-10T05:09:37.729Z,98172.81
2022-09-10T05:12:04.505Z,98168.25
2022-09-10T05:14:31.213Z,98168.09
2022-09-10T05:16:58.371Z,98162.66
2022-09-10T05:19:25.179Z,98163.66
2022-09-10T05:21:51.809Z,98159.22
2022-09-10T05:24:18.463Z,98161.25
2022-09-10T05:26:46.573Z,98161.25
2022-09-10T05:29:14.121Z,98165.69
2022-09-10T05:31:41.253Z,98162.81
2022-09-10T05:34:08.505Z,98160.09
2022-09-10T05:36:35.622Z,98158.25
2022-09-10T05:39:03.872Z,98159.22
2022-09-10T05:41:31.289Z,98160.09
2022-09-10T05:43:58.418Z,98158.25
2022-09-10T05:46:25.498Z,98153.34
2022-09-10T05:48:55.818Z,98145.06
2022-09-10T05:51:22.701Z,98142.84
2022-09-10T05:53:50.079Z,98147.44
2022-09-10T05:56:16.898Z,98142.34
2022-09-10T05:58:45.360Z,98141.16
2022-09-10T06:01:12.455Z,98135.56
2022-09-10T06:03:40.500Z,98135.25
2022-09-10T06:06:07.572Z,98137.66
2022-09-10T06:08:35.644Z,98140.22
2022-09-10T06:11:05.931Z,98122.75
2022-09-10T06:13:34.551Z,98130.59
2022-09-10T06:16:03.212Z,98135.84
2022-09-10T06:18:30.929Z,98134.00
2022-09-10T06:21:09.267Z,98130.81
2022-09-10T06:23:39.391Z,98135.09
2022-09-10T06:26:09.863Z,98129.34
2022-09-10T06:28:36.847Z,98137.34
2022-09-10T06:31:04.508Z,98138.75
2022-09-10T06:33:32.212Z,98144.88
2022-09-10T06:36:00.763Z,98135.53
2022-09-10T06:38:37.541Z,98136.97
2022-09-10T06:41:07.057Z,98133.59
2022-09-10T06:43:36.757Z,98141.25
2022-09-10T06:46:20.263Z,98146.56
2022-09-10T06:49:01.090Z,98144.81
2022-09-10T06:51:27.770Z,98142.28
2022-09-10T06:53:54.404Z,98146.41
2022-09-10T06:56:21.596Z,98151.03
2022-09-10T06:58:48.413Z,98156.84
2022-09-10T07:01:17.748Z,98156.22
2022-09-10T07:03:46.582Z,98156.75
2022-09-10T07:06:17.839Z,98154.88
2022-09-10T07:08:44.920Z,98159.97
2022-09-10T07:11:13.651Z,98159.38
2022-09-10T07:13:41.586Z,98163.09
2022-09-10T07:16:08.998Z,98155.31
2022-09-10T07:18:36.515Z,98157.06
2022-09-10T07:21:11.468Z,98161.50
2022-09-10T07:23:42.698Z,98162.59
2022-09-10T07:26:12.071Z,98161.59
2022-09-10T07:28:40.499Z,98161.25
2022-09-10T07:31:18.844Z,98162.31
2022-09-10T07:33:45.951Z,98171.00
2022-09-10T07:36:12.728Z,98173.25
2022-09-10T07:38:40.997Z,98174.81
2022-09-10T07:41:12.347Z,98179.75
2022-09-10T07:43:43.764Z,98181.81
2022-09-10T07:46:16.484Z,98192.03
2022-09-10T07:48:43.141Z,98179.81
2022-09-10T07:51:11.664Z,98188.47
2022-09-10T07:53:38.812Z,98186.97
2022-09-10T07:56:07.938Z,98177.13
2022-09-10T07:58:36.187Z,98182.78
2022-09-10T08:01:09.255Z,98182.34
2022-09-10T08:03:36.034Z,98182.19
2022-09-10T08:06:04.040Z,98185.09
2022-09-10T08:08:35.651Z,98180.13
2022-09-10T08:11:13.261Z,98173.66
2022-09-10T08:13:48.267Z,98172.78
2022-09-10T08:16:19.074Z,98169.03
2022-09-10T08:18:51.312Z,98174.16
2022-09-10T08:21:19.127Z,98173.78
2022-09-10T08:23:59.689Z,98175.84
2022-09-10T08:28:55.966Z,98168.78
2022-09-10T08:31:23.211Z,98170.41
2022-09-10T08:33:53.705Z,98178.53
2022-09-10T08:36:22.081Z,98167.69
2022-09-10T08:38:55.140Z,98176.59
2022-09-10T08:41:44.896Z,98174.22
2022-09-10T08:44:16.261Z,98173.56
2022-09-10T08:46:48.765Z,98177.50
2022-09-10T08:49:36.792Z,98179.22
2022-09-10T08:52:16.742Z,98176.66
2022-09-10T08:54:54.841Z,98185.13
2022-09-10T08:57:32.872Z,98173.16
2022-09-10T09:00:01.823Z,98181.38
2022-09-10T09:03:02.451Z,98169.59
2022-09-10T09:05:38.423Z,98174.19
2022-09-10T09:08:06.393Z,98177.38
2022-09-10T09:10:46.647Z,98179.44
2022-09-10T09:13:28.955Z,98171.31
2022-09-10T09:16:01.479Z,98176.16
2022-09-10T09:18:48.132Z,98170.19
2022-09-10T09:21:23.799Z,98168.38
2022-09-10T09:24:12.667Z,98177.63
2022-09-10T09:26:42.046Z,98174.53
2022-09-10T09:29:15.231Z,98170.19
2022-09-10T09:31:47.683Z,98175.81
2022-09-10T09:34:29.350Z,98168.97
2022-09-10T09:37:01.462Z,98173.78
2022-09-10T09:39:36.360Z,98170.38
2022-09-10T09:42:25.162Z,98167.47
2022-09-10T09:45:08.386Z,98168.25
2022-09-10T09:47:35.194Z,98166.06
2022-09-10T09:50:01.854Z,98166.81
2022-09-10T09:52:31.930Z,98162.97
2022-09-10T09:55:14.720Z,98157.97
2022-09-10T09:57:43.131Z,98155.81
2022-09-10T10:00:33.049Z,98157.09
2022-09-10T10:03:20.725Z,98158.69
2022-09-10T10:05:48.803Z,98158.66
2022-09-10T10:08:34.305Z,98148.97
2022-09-10T10:11:01.618Z,98138.41
2022-09-10T10:13:43.284Z,98142.34
2022-09-10T10:16:23.671Z,98137.31
2022-09-10T10:18:50.845Z,98140.59
2022-09-10T10:21:17.488Z,98136.38
2022-09-10T10:23:44.778Z,98133.47
2022-09-10T10:26:20.492Z,98139.84
2022-09-10T10:28:56.836Z,98130.69
2022-09-10T10:31:24.208Z,98133.81
2022-09-10T10:33:56.634Z,98116.59
2022-09-10T10:36:39.522Z,98125.53
2022-09-10T10:39:40.389Z,98122.19
2022-09-10T10:42:35.553Z,98109.28
2022-09-10T10:45:24.119Z,98118.75
2022-09-10T10:48:16.148Z,98114.81
2022-09-10T10:50:55.711Z,98109.63
2022-09-10T10:53:31.410Z,98120.34
2022-09-10T10:55:58.610Z,98117.09
2022-09-10T10:58:51.090Z,98117.28
2022-09-10T11:01:22.064Z,98112.06
2022-09-10T11:04:11.661Z,98108.78
2022-09-10T11:06:45.147Z,98118.31
2022-09-10T11:09:14.671Z,98114.47
2022-09-10T11:12:03.819Z,98105.06
2022-09-10T11:14:33.529Z,98115.66
2022-09-10T11:17:06.812Z,98112.44
2022-09-10T11:19:43.265Z,98108.69
2022-09-10T11:22:22.020Z,98111.47
2022-09-10T11:24:51.328Z,98105.78
2022-09-10T11:27:29.218Z,98106.03
2022-09-10T11:30:04.744Z,98104.03
2022-09-10T11:32:35.202Z,98108.34
2022-09-10T11:35:13.411Z,98096.59
2022-09-10T11:38:01.347Z,98094.28
2022-09-10T11:41:00.457Z,98098.59
2022-09-10T11:43:49.054Z,98088.66
2022-09-10T11:46:22.037Z,98093.66
2022-09-10T11:48:51.498Z,98096.38
2022-09-10T11:51:31.359Z,98085.72
2022-09-10T11:53:58.438Z,98081.69
2022-09-10T11:56:38.029Z,98074.91
2022-09-10T11:59:20.874Z,98075.16
2022-09-10T12:02:33.076Z,98074.28
2022-09-10T12:05:18.435Z,98075.97
2022-09-10T12:08:08.019Z,98072.78
2022-09-10T12:11:07.645Z,98069.94
2022-09-10T12:13:39.500Z,98076.44
2022-09-10T12:16:22.715Z,98071.22
2022-09-10T12:18:53.039Z,98064.19
2022-09-10T12:21:28.682Z,98066.13
2022-09-10T12:23:56.447Z,98065.19
2022-09-10T12:26:23.919Z,98066.00
2022-09-10T12:28:53.234Z,98059.97
2022-09-10T12:31:21.934Z,98056.91
2022-09-10T12:33:48.535Z,98051.88
2022-09-10T12:36:35.775Z,98057.00
2022-09-10T12:39:21.092Z,98051.91
2022-09-10T12:41:47.681Z,98044.16
2022-09-10T12:44:29.298Z,98050.16
2022-09-10T12:47:15.315Z,98043.88
2022-09-10T12:49:51.919Z,98052.78
2022-09-10T12:52:36.392Z,98037.63
2022-09-10T12:55:03.001Z,98039.22
2022-09-10T12:57:52.466Z,98028.97
2022-09-10T13:00:23.952Z,98024.13
2022-09-10T13:03:09.609Z,98019.88
2022-09-10T13:05:44.992Z,98011.09
2022-09-10T13:08:45.091Z,98006.94
2022-09-10T13:14:18.885Z,98012.41
2022-09-10T13:16:50.463Z,98014.69
2022-09-10T13:19:19.930Z,98013.75
2022-09-10T13:21:48.212Z,98003.50
2022-09-10T13:24:36.356Z,98014.06
2022-09-10T13:27:22.614Z,98002.09
2022-09-10T13:30:11.700Z,98009.25
2022-09-10T13:33:05.511Z,98003.47
2022-09-10T13:35:50.620Z,98004.59
2022-09-10T13:38:33.184Z,98002.81
2022-09-10T13:41:16.642Z,97999.25
2022-09-10T13:44:27.083Z,98009.38
2022-09-10T13:47:00.057Z,98008.81
2022-09-10T13:49:55.423Z,98008.75
2022-09-10T13:52:31.072Z,98002.59
2022-09-10T13:55:00.639Z,98008.16
2022-09-10T13:58:04.466Z,97998.75
2022-09-10T14:00:41.193Z,98003.31
2022-09-10T14:03:16.714Z,97999.44
2022-09-10T14:05:50.850Z,98005.25
2022-09-10T14:08:23.787Z,97994.72
2022-09-10T14:11:08.153Z,97997.50
2022-09-10T14:14:16.988Z,97986.72
2022-09-10T14:16:52.724Z,97980.19
2022-09-10T14:19:22.963Z,97971.53
2022-09-10T14:21:51.762Z,97981.03
2022-09-10T14:24:33.750Z,97987.81
2022-09-10T14:27:27.838Z,97977.19
2022-09-10T14:29:56.633Z,97972.91
2022-09-10T14:32:25.847Z,97975.16
2022-09-10T14:34:52.608Z,97971.31
2022-09-10T14:37:28.667Z,97966.59
2022-09-10T14:39:56.712Z,97971.03
2022-09-10T14:42:33.031Z,97973.13
2022-09-10T14:45:00.109Z,97980.09
2022-09-10T14:47:35.082Z,97973.13
2022-09-10T14:50:38.731Z,97981.53
2022-09-10T14:53:05.329Z,97982.19
2022-09-10T14:55:32.776Z,97974.69
2022-09-10T14:57:59.851Z,97981.72
2022-09-10T15:00:26.759Z,97979.41
2022-09-10T15:02:58.763Z,97978.66
2022-09-10T15:05:25.524Z,97969.00
2022-09-10T15:07:52.152Z,97977.50
2022-09-10T15:10:18.854Z,97978.19
2022-09-10T15:12:50.232Z,97974.25
2022-09-10T15:15:17.930Z,97978.91
2022-09-10T15:17:44.851Z,97984.41
2022-09-10T15:20:17.097Z,97980.84
2022-09-10T15:22:44.704Z,97980.28
2022-09-10T15:25:43.525Z,97983.13
2022-09-10T15:28:10.371Z,97979.25
2022-09-10T15:30:37.061Z,97975.84
2022-09-10T15:33:07.518Z,97971.22
2022-09-10T15:35:34.263Z,97977.38
2022-09-10T15:38:03.981Z,97979.25
2022-09-10T15:40:31.870Z,97985.59
2022-09-10T15:42:58.506Z,97972.75
2022-09-10T15:45:25.353Z,97986.91
2022-09-10T15:47:52.065Z,97982.09
2022-09-10T15:50:20.290Z,97980.97
2022-09-10T15:52:47.531Z,97991.44
2022-09-10T15:55:14.317Z,97996.22
2022-09-10T15:57:41.386Z,97992.81
2022-09-10T16:00:08.716Z,97994.22
2022-09-10T16:02:35.489Z,97996.50
2022-09-10T16:05:02.245Z,97993.28
2022-09-10T16:07:29.568Z,97992.72
2022-09-10T16:09:58.912Z,97995.00
2022-09-10T16:12:28.293Z,97999.91
2022-09-10T16:15:01.308Z,97994.53
2022-09-10T16:17:28.649Z,97996.94
2022-09-10T16:19:56.799Z,98000.53
2022-09-10T16:22:24.133Z,98011.28
2022-09-10T16:24:50.761Z,98007.72
2022-09-10T16:27:18.713Z,98015.59
2022-09-10T16:29:46.414Z,98023.31
2022-09-10T16:32:13.516Z,98017.38
2022-09-10T16:34:41.972Z,98017.91
2022-09-10T16:37:08.740Z,98018.44
2022-09-10T16:39:36.300Z,98009.94
2022-09-10T16:42:03.457Z,98018.00
2022-09-10T16:44:31.528Z,98006.78
2022-09-10T16:46:59.431Z,98004.56
2022-09-10T16:49:27.534Z,98014.00
2022-09-10T16:51:55.002Z,98011.81
2022-09-10T16:54:23.207Z,98025.50
2022-09-10T16:56:50.516Z,98025.72
2022-09-10T16:59:20.411Z,98029.06
2022-09-10T17:01:48.429Z,98028.59
2022-09-10T17:04:20.456Z,98022.81
2022-09-10T17:06:49.047Z,98020.28
2022-09-10T17:09:15.943Z,98013.19
2022-09-10T17:11:42.600Z,98008.09
2022-09-10T17:14:09.313Z,98009.66
2022-09-10T17:16:40.003Z,98016.16
2022-09-10T17:19:15.286Z,98013.28
2022-09-10T17:21:44.541Z,98007.84
2022-09-10T17:24:13.200Z,97997.09
2022-09-10T17:26:40.980Z,98006.31
2022-09-10T17:29:10.491Z,98003.56
2022-09-10T17:31:37.256Z,98017.03
2022-09-10T17:34:04.746Z,98012.22
2022-09-10T17:36:32.339Z,98002.91
2022-09-10T17:38:59.353Z,98007.47
2022-09-10T17:41:29.712Z,98015.31
2022-09-10T17:43:58.698Z,98018.69
2022-09-10T17:46:27.248Z,98024.97
2022-09-10T17:48:54.625Z,98015.94
2022-09-10T17:51:27.132Z,98017.63
2022-09-10T17:53:55.576Z,98029.72
2022-09-10T17:56:24.173Z,98030.91
2022-09-10T17:58:57.368Z,98030.03
2022-09-10T18:01:30.095Z,98032.59
2022-09-10T18:03:57.084Z,98036.53
2022-09-10T18:06:29.370Z,98034.31
2022-09-10T18:09:00.684Z,98034.63
2022-09-10T18:11:30.297Z,98027.44
2022-09-10T18:13:58.293Z,98032.53
2022-09-10T18:16:28.595Z,98033.16
2022-09-10T18:19:04.619Z,98029.75
2022-09-10T18:21:34.147Z,98033.44
2022-09-10T18:24:05.404Z,98025.25
2022-09-10T18:26:35.129Z,98023.88
2022-09-10T18:29:03.948Z,98026.91
2022-09-10T18:31:34.110Z,98021.81
2022-09-10T18:34:05.447Z,98029.47
2022-09-10T18:36:32.206Z,98029.31
2022-09-10T18:39:02.713Z,98038.47
2022-09-10T18:41:32.593Z,98030.66
2022-09-10T18:44:02.191Z,98038.28
2022-09-10T18:46:32.350Z,98032.31
2022-09-10T18:48:59.983Z,98033.50
2022-09-10T18:51:29.774Z,98028.53
2022-09-10T18:53:58.380Z,98032.59
2022-09-10T18:56:27.649Z,98030.53
2022-09-10T18:59:00.541Z,98028.44
2022-09-10T19:01:29.536Z,98028.22
2022-09-10T19:03:57.666Z,98020.53
2022-09-10T19:06:29.744Z,98025.75
2022-09-10T19:08:59.415Z,98033.69
2022-09-10T19:11:27.835Z,98031.75
2022-09-10T19:13:56.743Z,98033.56
2022-09-10T19:16:27.547Z,98030.97
2022-09-10T19:18:59.704Z,98032.84
2022-09-10T19:21:28.880Z,98028.81
2022-09-10T19:23:59.443Z,98028.66
2022-09-10T19:26:29.222Z,98036.81
2022-09-10T19:29:00.201Z,98035.13
2022-09-10T19:31:28.629Z,98037.84
2022-09-10T19:33:57.680Z,98030.53
2022-09-10T19:36:27.588Z,98034.94
2022-09-10T19:38:55.157Z,98027.13
2022-09-10T19:41:23.493Z,98033.69
2022-09-10T19:43:51.966Z,98027.91
2022-09-10T19:46:20.246Z,98031.06
2022-09-10T19:48:47.725Z,98023.91
2022-09-10T19:51:17.631Z,98029.78
2022-09-10T19:53:45.074Z,98014.66
2022-09-10T19:56:20.450Z,98018.69
2022-09-10T19:58:50.095Z,98014.06
2022-09-10T20:01:26.134Z,98013.66
2022-09-10T20:03:54.336Z,98011.78
2022-09-10T20:06:25.612Z,98017.38
2022-09-10T20:08:52.921Z,98012.25
2022-09-10T20:11:24.623Z,98011.31
2022-09-10T20:14:02.292Z,98010.91
2022-09-10T20:16:31.623Z,98015.66
2022-09-10T20:18:58.564Z,98011.50
2022-09-10T20:21:31.063Z,98011.97
2022-09-10T20:23:59.039Z,98013.44
2022-09-10T20:26:27.666Z,98027.91
2022-09-10T20:29:04.028Z,98022.81
2022-09-10T20:31:33.986Z,98023.09
2022-09-10T20:34:05.660Z,98024.28
2022-09-10T20:36:34.992Z,98025.59
2022-09-10T20:39:02.131Z,98024.00
2022-09-10T20:41:31.970Z,98024.00
2022-09-10T20:43:59.581Z,98018.59
2022-09-10T20:46:28.552Z,98026.03
2022-09-10T20:49:03.275Z,98020.59
2022-09-10T20:51:40.628Z,98026.03
2022-09-10T20:54:14.684Z,98033.31
2022-09-10T20:56:41.510Z,98020.91
2022-09-10T20:59:08.375Z,98019.19
2022-09-10T21:01:35.278Z,98026.63
2022-09-10T21:04:03.136Z,98024.69
2022-09-10T21:06:32.349Z,98027.81
2022-09-10T21:09:00.226Z,98025.56
2022-09-10T21:11:29.670Z,98026.88
2022-09-10T21:13:58.475Z,98031.59
2022-09-10T21:16:32.285Z,98026.47
2022-09-10T21:19:01.223Z,98028.47
2022-09-10T21:21:30.416Z,98032.34
2022-09-10T21:24:01.415Z,98033.50
2022-09-10T21:26:30.879Z,98030.50
2022-09-10T21:28:59.881Z,98028.41
2022-09-10T21:31:27.515Z,98026.28
2022-09-10T21:34:00.616Z,98028.25
2022-09-10T21:36:30.197Z,98026.53
2022-09-10T21:39:00.457Z,98026.69
2022-09-10T21:41:47.945Z,98034.41
2022-09-10T21:44:21.135Z,98028.56
2022-09-10T21:46:52.307Z,98034.28
2022-09-10T21:49:20.307Z,98034.59
2022-09-10T21:51:47.038Z,98041.13
2022-09-10T21:54:17.162Z,98049.56
2022-09-10T21:56:43.845Z,98045.44
2022-09-10T21:59:12.388Z,98036.56
2022-09-10T22:01:43.943Z,98037.03
2022-09-10T22:04:11.939Z,98034.31
2022-09-10T22:06:39.134Z,98035.88
2022-09-10T22:09:09.556Z,98028.63
2022-09-10T22:11:45.910Z,98029.75
2022-09-10T22:14:18.106Z,98031.75
2022-09-10T22:16:48.378Z,98028.63
2022-09-10T22:19:19.895Z,98036.91
2022-09-10T22:21:47.222Z,98048.13
2022-09-10T22:24:14.864Z,98054.84
2022-09-10T22:26:44.013Z,98055.44
2022-09-10T22:29:12.505Z,98056.97
2022-09-10T22:31:39.170Z,98054.13
2022-09-10T22:34:13.522Z,98055.56
2022-09-10T22:36:41.740Z,98065.09
2022-09-10T22:39:14.393Z,98062.53
2022-09-10T22:41:41.688Z,98056.53
2022-09-10T22:44:08.931Z,98060.13
2022-09-10T22:46:36.949Z,98057.41
2022-09-10T22:49:04.643Z,98058.25
2022-09-10T22:51:37.676Z,98047.56
2022-09-10T22:54:05.532Z,98048.72
2022-09-10T22:56:33.188Z,98039.88
2022-09-10T22:59:00.286Z,98052.72
2022-09-10T23:01:29.906Z,98050.84
2022-09-10T23:04:01.337Z,98049.88
2022-09-10T23:06:30.877Z,98039.19
2022-09-10T23:09:03.654Z,98038.16
2022-09-10T23:11:32.612Z,98042.59
2022-09-10T23:14:02.488Z,98037.31
2022-09-10T23:16:49.791Z,98037.75
2022-09-10T23:19:20.078Z,98037.03
2022-09-10T23:21:51.356Z,98040.72
2022-09-10T23:24:20.563Z,98050.41
2022-09-10T23:26:47.368Z,98037.44
2022-09-10T23:29:18.671Z,98039.03
2022-09-10T23:31:46.326Z,98037.06
2022-09-10T23:34:18.794Z,98033.91
2022-09-10T23:36:47.460Z,98024.38
2022-09-10T23:39:20.171Z,98025.66
2022-09-10T23:41:48.409Z,98026.81
2022-09-10T23:44:15.165Z,98025.22
2022-09-10T23:46:41.962Z,98025.50
2022-09-10T23:49:09.027Z,98018.66
2022-09-10T23:51:36.723Z,98018.78
2022-09-10T23:54:03.683Z,98018.19
2022-09-10T23:56:30.636Z,98014.91
2022-09-10T23:58:59.617Z,98019.63
